Time;durP1;ratioP1;P1;durP2;ratioP2;P2;SDS_P1;SDS_P2;PMS_P1;PMS_P2;Temp;Humidity;BMP_temperature;BMP_pressure;BME280_temperature;BME280_humidity;BME280_pressure;Samples;Min_cycle;Max_cycle;Signal;HPM_P1;HPM_P2
2023/05/28 00:01:19;;;;;;;2.40;2.20;;;16.80;97.30;;;17.23;nan;100817.81;5019092;28;20633;-67
2023/05/28 00:03:46;;;;;;;3.13;2.73;;;16.80;97.60;;;17.20;nan;100820.72;5048161;28;20628;-67
2023/05/28 00:06:13;;;;;;;2.70;2.40;;;16.70;98.10;;;17.18;nan;100825.31;5018362;28;20633;-67
2023/05/28 00:08:41;;;;;;;6.43;2.47;;;16.70;98.30;;;17.15;nan;100821.16;5032638;28;20624;-66
2023/05/28 00:11:08;;;;;;;4.40;2.57;;;16.70;98.50;;;17.11;nan;100821.59;5031744;28;20660;-66
2023/05/28 00:13:35;;;;;;;2.80;2.57;;;16.70;98.70;;;17.06;nan;100816.75;5021697;28;20637;-67
2023/05/28 00:16:02;;;;;;;2.63;2.43;;;16.70;99.00;;;17.05;nan;100823.88;5009212;28;20621;-66
2023/05/28 00:18:30;;;;;;;4.13;2.33;;;16.60;99.30;;;17.06;nan;100817.59;5021622;28;21240;-67
2023/05/28 00:20:57;;;;;;;3.33;2.67;;;16.60;99.50;;;17.04;nan;100818.72;5014832;28;20670;-67
2023/05/28 00:23:24;;;;;;;4.27;3.07;;;16.60;99.70;;;17.01;nan;100829.56;5029698;28;21331;-67
2023/05/28 00:25:51;;;;;;;3.40;3.10;;;16.60;99.90;;;16.98;nan;100822.78;5022925;28;20679;-67
2023/05/28 00:28:18;;;;;;;4.20;2.80;;;16.60;99.90;;;16.94;nan;100823.22;5050006;28;20624;-70
2023/05/28 00:30:45;;;;;;;3.47;2.37;;;16.50;99.90;;;16.89;nan;100818.38;5039117;28;20678;-67
2023/05/28 00:33:12;;;;;;;5.13;3.07;;;16.50;99.90;;;16.84;nan;100818.00;5025918;28;20637;-67
2023/05/28 00:35:39;;;;;;;2.97;2.67;;;16.40;99.90;;;16.77;nan;100822.19;5031196;28;20638;-66
2023/05/28 00:38:06;;;;;;;3.07;2.70;;;16.40;99.90;;;16.73;nan;100820.00;5041392;28;21099;-66
2023/05/28 00:40:33;;;;;;;2.70;2.50;;;16.30;99.90;;;16.68;nan;100809.88;5041712;28;21238;-68
2023/05/28 00:43:00;;;;;;;3.33;2.90;;;16.30;99.90;;;16.61;nan;100811.41;5030002;28;20616;-66
2023/05/28 00:45:27;;;;;;;3.07;2.57;;;16.20;99.90;;;16.60;nan;100811.56;5016236;28;20645;-66
2023/05/28 00:47:54;;;;;;;2.67;2.50;;;16.20;99.90;;;16.57;nan;100815.31;5037427;28;20619;-67
2023/05/28 00:50:22;;;;;;;2.33;1.97;;;16.20;99.90;;;16.54;nan;100810.34;5028688;28;20684;-67
2023/05/28 00:52:51;;;;;;;2.33;2.10;;;16.10;99.90;;;16.55;nan;100817.28;5039437;28;20651;-68
2023/05/28 00:55:19;;;;;;;6.23;2.90;;;16.10;99.90;;;16.55;nan;100808.53;5026385;28;21208;-68
2023/05/28 00:57:53;;;;;;;4.47;2.53;;;16.10;99.90;;;16.54;nan;100807.72;5021064;28;21250;-66
2023/05/28 01:00:20;;;;;;;3.30;1.50;;;16.20;99.90;;;16.52;nan;100808.84;5039770;28;20654;-67
2023/05/28 01:02:48;;;;;;;2.60;2.40;;;16.10;99.90;;;16.47;nan;100808.41;5026378;28;20619;-66
2023/05/28 01:05:15;;;;;;;4.07;2.60;;;16.10;99.90;;;16.42;nan;100806.19;5025713;28;20655;-67
2023/05/28 01:07:42;;;;;;;8.10;2.60;;;16.00;99.90;;;16.43;nan;100805.22;5025909;28;20644;-67
2023/05/28 01:10:10;;;;;;;5.40;3.13;;;16.00;99.90;;;16.37;nan;100797.91;5023700;28;20684;-67
2023/05/28 01:12:38;;;;;;;3.23;2.50;;;16.00;99.90;;;16.37;nan;100797.91;5034930;28;20628;-67
2023/05/28 01:15:07;;;;;;;2.80;2.47;;;16.00;99.90;;;16.41;nan;100793.19;5029361;28;21140;-69
2023/05/28 01:17:35;;;;;;;2.73;2.47;;;16.00;99.90;;;16.40;nan;100792.34;5017634;28;20641;-67
2023/05/28 01:20:05;;;;;;;3.00;2.53;;;16.00;99.90;;;16.40;nan;100796.81;5028753;28;20665;-67
2023/05/28 01:22:38;;;;;;;4.43;2.97;;;16.00;99.90;;;16.36;nan;100788.34;5010286;28;20601;-66
2023/05/28 01:25:09;;;;;;;2.07;1.97;;;16.00;99.90;;;16.34;nan;100792.91;5034353;28;20628;-68
2023/05/28 01:27:39;;;;;;;4.90;3.07;;;16.00;99.90;;;16.31;nan;100793.22;5037491;28;20617;-69
2023/05/28 01:30:14;;;;;;;2.93;2.63;;;15.90;99.90;;;16.30;nan;100796.81;5023557;28;20664;-67
2023/05/28 01:32:42;;;;;;;2.63;2.40;;;15.90;99.90;;;16.25;nan;100796.41;5023054;28;21191;-66
2023/05/28 01:35:10;;;;;;;2.80;2.57;;;15.90;99.90;;;16.25;nan;100797.22;5024757;28;21199;-66
2023/05/28 01:37:43;;;;;;;2.57;2.37;;;15.90;99.90;;;16.22;nan;100800.16;5017278;28;20640;-67
2023/05/28 01:40:11;;;;;;;4.60;2.30;;;15.90;99.90;;;16.15;nan;100803.50;5010054;28;21002;-67
2023/05/28 01:42:39;;;;;;;2.80;1.70;;;15.80;99.90;;;16.11;nan;100807.38;5013165;28;21252;-67
2023/05/28 01:45:10;;;;;;;3.20;2.30;;;15.70;99.90;;;16.07;nan;100806.84;5027355;28;20646;-67
2023/05/28 01:47:37;;;;;;;2.90;2.10;;;15.70;99.90;;;16.07;nan;100800.75;5025182;28;20647;-67
2023/05/28 01:50:05;;;;;;;3.43;2.53;;;15.70;99.90;;;16.07;nan;100798.13;5037888;28;20648;-68
2023/05/28 01:52:33;;;;;;;4.53;3.10;;;15.70;99.90;;;16.01;nan;100796.06;5037150;28;21371;-67
2023/05/28 01:55:00;;;;;;;7.20;3.57;;;15.70;99.90;;;15.90;nan;100798.81;5046366;28;20993;-68
2023/05/28 01:57:26;;;;;;;2.80;2.60;;;15.60;99.90;;;15.83;nan;100795.94;5010231;28;20637;-68
2023/05/28 01:59:54;;;;;;;7.37;3.03;;;15.50;99.90;;;15.80;nan;100790.13;5013617;28;20689;-70
2023/05/28 02:02:25;;;;;;;3.70;3.30;;;15.40;99.90;;;15.78;nan;100792.88;5010268;28;20695;-69
2023/05/28 02:04:55;;;;;;;3.63;2.87;;;15.40;99.90;;;15.77;nan;100788.59;5017683;28;20621;-67
2023/05/28 02:07:22;;;;;;;2.93;2.67;;;15.40;99.90;;;15.76;nan;100791.38;5025666;28;20640;-67
2023/05/28 02:09:49;;;;;;;7.20;3.20;;;15.40;99.90;;;15.77;nan;100793.03;5038041;28;20668;-67
2023/05/28 02:12:16;;;;;;;4.67;2.77;;;15.40;99.90;;;15.77;nan;100803.53;5032639;28;21022;-66
2023/05/28 02:14:44;;;;;;;4.00;2.93;;;15.40;99.90;;;15.75;nan;100800.22;5032391;28;20648;-66
2023/05/28 02:17:12;;;;;;;3.27;2.60;;;15.40;99.90;;;15.72;nan;100795.22;5017076;28;21184;-65
2023/05/28 02:19:39;;;;;;;2.57;2.20;;;15.30;99.90;;;15.71;nan;100793.56;5028777;28;20708;-67
2023/05/28 02:22:11;;;;;;;5.30;2.60;;;15.30;99.90;;;15.69;nan;100790.25;5011707;28;20641;-68
2023/05/28 02:24:39;;;;;;;4.00;2.70;;;15.30;99.90;;;15.64;nan;100789.84;5030821;28;20661;-67
2023/05/28 02:27:07;;;;;;;3.37;2.60;;;15.30;99.90;;;15.61;nan;100782.25;5032525;28;20636;-65
2023/05/28 02:29:34;;;;;;;5.27;2.97;;;15.20;99.90;;;15.53;nan;100789.00;5032142;28;20669;-66
2023/05/28 02:32:03;;;;;;;10.73;3.20;;;15.20;99.90;;;15.43;nan;100793.44;5031633;28;20605;-68
2023/05/28 02:34:31;;;;;;;2.67;2.47;;;15.10;99.90;;;15.40;nan;100790.19;5028318;28;20703;-66
2023/05/28 02:37:00;;;;;;;4.80;2.70;;;15.00;99.90;;;15.35;nan;100793.25;5019211;28;20644;-68
2023/05/28 02:39:27;;;;;;;2.53;2.30;;;15.00;99.90;;;15.38;nan;100792.13;5021228;28;20679;-67
2023/05/28 02:41:54;;;;;;;3.30;2.10;;;15.00;99.90;;;15.37;nan;100788.69;5012570;28;20625;-67
2023/05/28 02:44:22;;;;;;;2.90;2.63;;;15.00;99.90;;;15.37;nan;100783.44;5012721;28;20621;-67
2023/05/28 02:46:49;;;;;;;5.50;3.30;;;15.00;99.90;;;15.40;nan;100788.41;5026053;28;20696;-65
2023/05/28 02:49:16;;;;;;;2.90;2.70;;;15.00;99.90;;;15.39;nan;100781.50;5050766;28;20651;-69
2023/05/28 02:51:43;;;;;;;6.30;2.97;;;15.10;99.90;;;15.31;nan;100786.59;5015980;28;21070;-67
2023/05/28 02:54:10;;;;;;;6.20;2.70;;;15.00;99.90;;;15.28;nan;100786.03;5046165;28;20624;-69
2023/05/28 02:56:37;;;;;;;5.03;2.60;;;14.90;99.90;;;15.24;nan;100782.88;5025902;28;20663;-66
2023/05/28 02:59:04;;;;;;;3.47;2.50;;;14.80;99.90;;;15.24;nan;100780.25;5031853;28;20647;-69
2023/05/28 03:01:31;;;;;;;6.27;3.13;;;14.80;99.90;;;15.22;nan;100786.59;5025470;28;20632;-66
2023/05/28 03:03:58;;;;;;;3.67;2.60;;;14.80;99.90;;;15.25;nan;100792.41;5013198;28;21157;-69
2023/05/28 03:06:26;;;;;;;4.87;2.90;;;14.90;99.90;;;15.26;nan;100794.09;5017075;28;20982;-66
2023/05/28 03:08:53;;;;;;;4.90;2.63;;;14.90;99.90;;;15.24;nan;100789.91;5031769;28;20631;-67
2023/05/28 03:11:20;;;;;;;4.47;2.77;;;14.90;99.90;;;15.17;nan;100787.00;5024890;28;20641;-65
2023/05/28 03:13:47;;;;;;;2.43;2.23;;;14.80;99.90;;;15.12;nan;100791.03;5039266;28;21015;-67
2023/05/28 03:16:14;;;;;;;3.10;2.80;;;14.80;99.90;;;15.14;nan;100792.53;5028230;28;20636;-66
2023/05/28 03:18:41;;;;;;;3.90;2.90;;;14.80;99.90;;;15.14;nan;100795.16;5030193;28;20656;-67
2023/05/28 03:21:09;;;;;;;6.93;3.37;;;14.80;99.90;;;15.14;nan;100789.88;5015457;28;20656;-67
2023/05/28 03:23:36;;;;;;;5.57;3.30;;;14.80;99.90;;;15.13;nan;100798.75;5028975;28;20697;-67
2023/05/28 03:26:03;;;;;;;6.97;3.03;;;14.80;99.90;;;15.06;nan;100796.78;5043545;28;20661;-67
2023/05/28 03:28:30;;;;;;;3.87;2.53;;;14.70;99.90;;;15.05;nan;100795.13;5019327;28;20637;-67
2023/05/28 03:30:57;;;;;;;3.17;2.33;;;14.70;99.90;;;15.05;nan;100792.50;5017040;28;20716;-67
2023/05/28 03:33:24;;;;;;;2.37;2.17;;;14.70;99.90;;;15.03;nan;100794.44;5025588;28;20740;-67
2023/05/28 03:35:51;;;;;;;4.07;2.80;;;14.70;99.90;;;14.99;nan;100793.84;5021966;28;20640;-68
2023/05/28 03:38:19;;;;;;;4.73;2.70;;;14.60;99.90;;;14.94;nan;100800.50;5014848;28;20629;-67
2023/05/28 03:40:46;;;;;;;2.80;2.60;;;14.60;99.90;;;14.92;nan;100795.38;5013318;28;20664;-67
2023/05/28 03:43:15;;;;;;;3.20;2.30;;;14.60;99.90;;;14.91;nan;100796.34;5014587;28;20632;-67
2023/05/28 03:45:42;;;;;;;2.80;2.10;;;14.60;99.90;;;14.90;nan;100799.94;5019590;28;20632;-69
2023/05/28 03:48:10;;;;;;;3.77;2.60;;;14.60;99.90;;;14.89;nan;100797.44;5023856;28;20642;-68
2023/05/28 03:50:37;;;;;;;3.43;2.73;;;14.50;99.90;;;14.85;nan;100791.63;5024885;28;20674;-72
2023/05/28 03:53:05;;;;;;;3.40;2.57;;;14.50;99.90;;;14.80;nan;100801.69;5022823;28;20644;-68
2023/05/28 03:55:35;;;;;;;7.07;3.20;;;14.40;99.90;;;14.78;nan;100793.94;5033541;28;20654;-68
2023/05/28 03:58:02;;;;;;;3.00;2.53;;;14.40;99.90;;;14.77;nan;100797.56;5023057;28;20646;-66
2023/05/28 04:00:30;;;;;;;4.10;2.67;;;14.40;99.90;;;14.81;nan;100795.47;5040124;28;20669;-67
2023/05/28 04:02:57;;;;;;;6.17;2.70;;;14.50;99.90;;;14.86;nan;100802.97;5039114;28;20627;-66
2023/05/28 04:05:24;;;;;;;5.10;3.17;;;14.50;99.90;;;14.94;nan;100803.97;5032802;28;20621;-69
2023/05/28 04:07:51;;;;;;;2.53;2.33;;;14.60;99.90;;;15.01;nan;100797.22;5010381;28;20621;-67
2023/05/28 04:10:18;;;;;;;4.17;2.40;;;14.60;99.90;;;15.08;nan;100794.84;5014981;28;21280;-67
2023/05/28 04:12:45;;;;;;;3.27;2.07;;;14.70;99.90;;;15.15;nan;100796.81;5023137;28;21263;-67
2023/05/28 04:15:12;;;;;;;2.40;2.17;;;14.80;99.90;;;15.18;nan;100799.16;5030004;28;21070;-68
2023/05/28 04:17:39;;;;;;;3.17;2.60;;;14.80;99.90;;;15.20;nan;100786.75;5030372;28;20664;-69
2023/05/28 04:20:06;;;;;;;5.77;2.40;;;14.80;99.90;;;15.27;nan;100800.97;5046524;28;20676;-68
2023/05/28 04:22:34;;;;;;;2.70;2.50;;;14.90;99.90;;;15.29;nan;100796.41;5028758;28;21164;-67
2023/05/28 04:25:01;;;;;;;3.47;2.10;;;14.90;99.90;;;15.32;nan;100795.31;5022744;28;21476;-67
2023/05/28 04:27:28;;;;;;;3.27;2.33;;;15.00;99.90;;;15.39;nan;100789.41;5021731;28;20668;-70
2023/05/28 04:29:56;;;;;;;5.90;2.50;;;15.00;99.90;;;15.44;nan;100791.63;5031358;28;20652;-67
2023/05/28 04:32:24;;;;;;;2.80;2.50;;;15.10;99.90;;;15.49;nan;100799.94;5015128;28;20649;-67
2023/05/28 04:34:53;;;;;;;2.77;2.13;;;15.10;99.90;;;15.70;nan;100797.16;5042542;28;20640;-67
2023/05/28 04:37:21;;;;;;;2.67;2.43;;;15.30;99.90;;;15.89;nan;100791.88;5023985;28;20993;-67
2023/05/28 04:39:48;;;;;;;5.47;2.63;;;15.50;99.90;;;16.05;nan;100793.00;5010551;28;21372;-67
2023/05/28 04:42:18;;;;;;;3.03;2.50;;;15.70;99.90;;;16.20;nan;100796.00;5011172;28;21305;-67
2023/05/28 04:44:45;;;;;;;4.00;2.70;;;15.80;99.90;;;16.36;nan;100801.50;5025865;28;20670;-69
2023/05/28 04:47:13;;;;;;;2.50;2.30;;;15.90;99.90;;;16.53;nan;100805.22;5019621;28;21481;-67
2023/05/28 04:49:40;;;;;;;4.00;2.77;;;16.10;99.90;;;16.65;nan;100806.72;5027325;28;21095;-67
2023/05/28 04:52:07;;;;;;;5.50;2.97;;;16.20;99.90;;;16.75;nan;100807.50;5033150;28;20655;-68
2023/05/28 04:54:34;;;;;;;2.27;2.10;;;16.30;99.90;;;16.93;nan;100811.00;5031417;28;20640;-68
2023/05/28 04:57:02;;;;;;;3.53;2.33;;;16.50;99.90;;;17.08;nan;100814.00;5013800;28;20648;-69
2023/05/28 04:59:29;;;;;;;3.50;2.37;;;16.70;99.90;;;17.27;nan;100817.31;5023151;28;20672;-69
2023/05/28 05:01:56;;;;;;;3.90;2.77;;;16.80;99.90;;;17.42;nan;100807.94;5021544;28;20632;-68
2023/05/28 05:04:23;;;;;;;3.70;2.67;;;17.00;99.90;;;17.59;nan;100809.78;5029889;28;21215;-67
2023/05/28 05:06:51;;;;;;;4.07;2.53;;;17.20;99.90;;;17.78;nan;100819.38;5029575;28;20640;-67
2023/05/28 05:09:19;;;;;;;2.60;2.30;;;17.40;99.90;;;17.91;nan;100819.78;5035083;28;21335;-69
2023/05/28 05:11:47;;;;;;;2.70;2.50;;;17.50;99.90;;;18.04;nan;100827.34;5022347;28;20636;-68
2023/05/28 05:14:14;;;;;;;3.40;2.20;;;17.60;99.90;;;18.23;nan;100825.31;5032663;28;20642;-67
2023/05/28 05:16:41;;;;;;;4.10;2.93;;;17.80;99.90;;;18.42;nan;100819.81;5033114;28;20621;-71
2023/05/28 05:19:08;;;;;;;4.10;2.33;;;18.00;99.90;;;18.54;nan;100823.91;5024321;28;20671;-68
2023/05/28 05:21:35;;;;;;;6.27;2.87;;;18.10;99.90;;;18.63;nan;100831.88;5035146;28;20621;-69
2023/05/28 05:24:02;;;;;;;2.60;2.40;;;18.30;99.90;;;18.74;nan;100839.53;5019169;28;20628;-67
2023/05/28 05:26:29;;;;;;;3.00;2.40;;;18.30;99.90;;;18.92;nan;100842.91;5010246;28;20617;-68
2023/05/28 05:28:56;;;;;;;2.50;2.30;;;18.50;99.90;;;19.06;nan;100834.41;5008889;28;20637;-68
2023/05/28 05:31:23;;;;;;;2.67;2.30;;;18.70;99.90;;;19.21;nan;100843.34;5009910;28;20612;-68
2023/05/28 05:33:51;;;;;;;4.20;2.53;;;18.80;99.80;;;19.32;nan;100840.41;5036313;28;20677;-68
2023/05/28 05:36:18;;;;;;;2.33;2.10;;;18.90;99.50;;;19.52;nan;100846.28;5048029;28;20616;-69
2023/05/28 05:38:46;;;;;;;3.13;2.50;;;19.00;99.30;;;19.65;nan;100844.84;5028592;28;21003;-71
2023/05/28 05:41:12;;;;;;;1.93;1.83;;;19.20;98.60;;;19.80;nan;100845.00;5023571;28;20675;-68
2023/05/28 05:43:40;;;;;;;2.83;2.33;;;19.40;98.50;;;19.87;nan;100838.03;5018056;28;20641;-71
2023/05/28 05:46:06;;;;;;;3.57;2.23;;;19.50;97.80;;;20.07;nan;100837.56;5022440;28;20643;-68
2023/05/28 05:48:34;;;;;;;3.30;2.70;;;19.70;97.50;;;20.25;nan;100839.25;5022947;28;20705;-69
2023/05/28 05:51:02;;;;;;;2.73;2.20;;;19.80;97.00;;;20.47;nan;100838.53;5024012;28;20668;-67
2023/05/28 05:53:29;;;;;;;2.53;2.33;;;20.00;96.80;;;20.66;nan;100832.84;5007561;28;20707;-67
2023/05/28 05:55:56;;;;;;;3.00;2.70;;;20.20;96.50;;;21.01;nan;100835.06;5013756;28;20645;-68
2023/05/28 05:58:24;;;;;;;2.57;2.20;;;20.50;96.30;;;21.25;nan;100834.94;5021824;28;20633;-67
2023/05/28 06:00:51;;;;;;;3.80;2.70;;;20.70;95.40;;;21.49;nan;100841.94;5018892;28;20691;-66
2023/05/28 06:03:18;;;;;;;3.53;2.10;;;21.00;94.70;;;21.82;nan;100847.88;5021222;28;20628;-68
2023/05/28 06:05:45;;;;;;;3.70;2.57;;;21.30;94.30;;;22.19;nan;100843.44;5023259;28;20666;-69
2023/05/28 06:08:13;;;;;;;2.90;2.20;;;21.60;93.70;;;22.51;nan;100844.16;5018717;28;20644;-69
2023/05/28 06:10:40;;;;;;;1.63;1.53;;;22.00;92.80;;;22.81;nan;100841.31;5026262;28;20669;-71
2023/05/28 06:13:07;;;;;;;4.33;2.07;;;22.30;92.30;;;23.26;nan;100844.75;5022476;28;20889;-67
2023/05/28 06:15:34;;;;;;;2.73;2.27;;;22.80;91.00;;;23.72;nan;100846.94;5021319;28;20622;-68
2023/05/28 06:18:03;;;;;;;3.43;3.13;;;23.20;90.20;;;24.08;nan;100843.41;5024685;28;20706;-68
2023/05/28 06:20:30;;;;;;;3.13;2.40;;;23.60;88.50;;;24.55;nan;100846.22;5022734;28;20680;-69
2023/05/28 06:22:57;;;;;;;4.40;2.80;;;24.00;87.30;;;24.90;nan;100844.38;5014512;28;20644;-68
2023/05/28 06:25:25;;;;;;;3.20;2.90;;;24.40;84.30;;;25.07;nan;100848.34;5015233;28;20637;-71
2023/05/28 06:27:52;;;;;;;4.07;3.03;;;24.70;82.30;;;25.25;nan;100849.47;5013357;28;21074;-73
2023/05/28 06:30:19;;;;;;;2.90;2.60;;;24.80;80.50;;;25.62;nan;100853.50;5014533;28;20671;-68
2023/05/28 06:32:46;;;;;;;2.50;2.07;;;25.10;79.80;;;26.12;nan;100861.00;5022707;28;20640;-67
2023/05/28 06:35:13;;;;;;;8.23;2.17;;;25.60;78.50;;;26.49;nan;100850.69;5022022;28;20628;-68
2023/05/28 06:37:40;;;;;;;1.87;1.77;;;26.00;77.00;;;27.06;nan;100858.81;5031956;28;20628;-66
2023/05/28 06:40:10;;;;;;;5.50;3.00;;;26.60;75.00;;;27.45;nan;100858.66;5029766;28;20669;-70
2023/05/28 06:42:40;;;;;;;6.30;4.10;;;27.10;72.30;;;28.17;nan;100858.19;5020264;28;20629;-67
2023/05/28 06:45:08;;;;;;;5.73;3.93;;;27.80;71.70;;;28.93;nan;100853.31;5042970;28;20612;-67
2023/05/28 06:47:35;;;;;;;3.40;3.10;;;28.60;67.90;;;29.25;nan;100848.59;5012699;28;20688;-70
2023/05/28 06:50:03;;;;;;;2.87;2.57;;;29.00;65.90;;;29.73;nan;100853.94;5025279;28;21323;-67
2023/05/28 06:52:30;;;;;;;3.00;2.23;;;29.40;64.80;;;30.33;nan;100855.47;5024354;28;21204;-67
2023/05/28 06:54:57;;;;;;;3.00;2.60;;;30.00;62.60;;;30.74;nan;100859.91;5016512;28;20643;-71
2023/05/28 06:57:24;;;;;;;2.77;2.57;;;30.50;61.40;;;31.14;nan;100863.47;5027645;28;20647;-67
2023/05/28 06:59:51;;;;;;;2.57;2.20;;;30.90;60.30;;;31.61;nan;100868.69;5017699;28;20669;-67
2023/05/28 07:02:18;;;;;;;2.33;2.13;;;31.30;58.90;;;32.23;nan;100866.81;5020201;28;20690;-67
2023/05/28 07:04:47;;;;;;;3.00;2.37;;;31.90;57.40;;;32.64;nan;100871.78;5030256;28;20635;-68
2023/05/28 07:07:15;;;;;;;6.10;3.67;;;32.30;56.70;;;32.96;nan;100864.66;5030436;28;20643;-68
2023/05/28 07:09:42;;;;;;;2.50;2.30;;;32.70;55.80;;;33.53;nan;100865.06;5029979;28;21040;-69
2023/05/28 07:12:09;;;;;;;3.33;3.10;;;33.20;55.10;;;33.82;nan;100865.63;5011394;28;21209;-69
2023/05/28 07:14:36;;;;;;;2.60;2.40;;;33.50;54.60;;;34.17;nan;100865.94;5038292;28;20623;-68
2023/05/28 07:17:04;;;;;;;3.30;2.90;;;33.80;53.70;;;34.48;nan;100878.59;5010426;28;20629;-68
2023/05/28 07:19:31;;;;;;;2.70;2.50;;;34.20;52.70;;;34.58;nan;100878.72;5022584;28;21226;-68
2023/05/28 07:21:58;;;;;;;4.20;2.60;;;34.30;51.80;;;34.67;nan;100877.13;5024797;28;20635;-69
2023/05/28 07:24:25;;;;;;;2.67;2.47;;;34.50;51.00;;;34.84;nan;100876.97;5029805;28;21187;-67
2023/05/28 07:26:52;;;;;;;3.27;2.50;;;34.70;51.10;;;35.02;nan;100877.34;5031337;28;20607;-67
2023/05/28 07:29:19;;;;;;;2.83;2.27;;;34.90;50.30;;;35.10;nan;100871.41;5020480;28;20663;-67
2023/05/28 07:31:46;;;;;;;2.80;2.60;;;35.10;50.10;;;35.94;nan;100881.91;5030781;28;21014;-67
2023/05/28 07:34:13;;;;;;;2.87;2.67;;;35.70;49.80;;;36.35;nan;100880.84;5046830;28;20657;-70
2023/05/28 07:36:40;;;;;;;2.93;2.60;;;36.10;48.40;;;36.26;nan;100882.47;5016648;28;21213;-70
2023/05/28 07:39:09;;;;;;;4.07;3.17;;;36.20;48.30;;;36.47;nan;100877.84;5020818;28;20628;-66
2023/05/28 07:41:36;;;;;;;2.50;2.30;;;36.30;47.70;;;36.78;nan;100873.16;5030852;28;20621;-67
2023/05/28 07:44:03;;;;;;;2.43;2.23;;;36.70;47.40;;;37.36;nan;100875.09;5029207;28;21046;-66
2023/05/28 07:46:30;;;;;;;2.43;2.33;;;37.10;46.70;;;37.46;nan;100872.31;5022265;28;20648;-68
2023/05/28 07:48:57;;;;;;;3.13;2.67;;;37.30;46.40;;;37.89;nan;100874.19;5028376;28;20636;-66
2023/05/28 07:51:26;;;;;;;2.00;1.90;;;37.60;46.10;;;37.48;nan;100872.03;5030668;28;20643;-70
2023/05/28 07:53:53;;;;;;;2.90;2.70;;;37.60;45.00;;;37.37;nan;100875.91;5042906;28;20646;-68
2023/05/28 07:56:24;;;;;;;2.50;2.33;;;37.50;44.80;;;37.43;nan;100872.88;5026030;28;20652;-65
2023/05/28 07:58:51;;;;;;;2.30;2.20;;;37.60;44.50;;;37.77;nan;100864.75;5010100;28;20633;-66
2023/05/28 08:01:18;;;;;;;3.00;2.47;;;37.80;44.10;;;38.59;nan;100858.28;5022590;28;21031;-68
2023/05/28 08:03:50;;;;;;;2.20;2.07;;;38.40;43.90;;;38.99;nan;100868.75;5012285;28;20637;-69
2023/05/28 08:06:18;;;;;;;3.03;2.77;;;39.00;42.90;;;38.80;nan;100867.91;5035318;28;21224;-66
2023/05/28 08:08:45;;;;;;;3.23;2.97;;;39.10;42.30;;;39.16;nan;100871.00;5049183;28;20627;-65
2023/05/28 08:11:13;;;;;;;2.87;2.67;;;39.20;42.70;;;39.40;nan;100869.81;5025300;28;20668;-69
2023/05/28 08:13:41;;;;;;;1.90;1.80;;;39.50;42.10;;;39.07;nan;100867.25;5014516;28;21306;-68
2023/05/28 08:16:11;;;;;;;2.30;2.10;;;39.40;40.90;;;38.33;nan;100856.94;5030481;28;21215;-65
2023/05/28 08:18:39;;;;;;;2.90;2.70;;;38.70;41.20;;;38.38;nan;100854.97;5023675;28;20624;-67
2023/05/28 08:21:07;;;;;;;2.60;2.40;;;38.60;41.40;;;38.37;nan;100857.97;5021453;28;20680;-69
2023/05/28 08:23:34;;;;;;;2.60;2.50;;;38.70;41.30;;;38.88;nan;100863.69;5018259;28;20626;-67
2023/05/28 08:26:02;;;;;;;2.53;2.33;;;39.00;41.00;;;39.31;nan;100857.97;5016532;28;20639;-69
2023/05/28 08:28:30;;;;;;;3.37;3.07;;;39.40;40.50;;;39.51;nan;100857.63;5014991;28;20687;-66
2023/05/28 08:30:57;;;;;;;2.70;2.60;;;39.60;40.80;;;39.99;nan;100857.47;5027315;28;20657;-67
2023/05/28 08:33:25;;;;;;;2.33;2.13;;;40.00;40.80;;;40.53;nan;100854.84;5024967;28;20701;-68
2023/05/28 08:35:52;;;;;;;3.20;3.00;;;40.50;40.20;;;40.67;nan;100849.38;5028277;28;20619;-68
2023/05/28 08:38:19;;;;;;;2.60;2.43;;;40.70;39.80;;;40.95;nan;100853.75;5021644;28;20654;-67
2023/05/28 08:40:54;;;;;;;2.50;2.40;;;41.00;39.60;;;41.23;nan;100857.22;5015618;28;20681;-65
2023/05/28 08:43:22;;;;;;;2.57;2.47;;;41.10;39.40;;;41.42;nan;100844.22;5011667;28;20620;-67
2023/05/28 08:45:52;;;;;;;3.20;2.97;;;41.30;39.40;;;41.47;nan;100844.88;5013125;28;21011;-64
2023/05/28 08:48:21;;;;;;;2.70;2.60;;;41.60;39.50;;;41.04;nan;100840.13;5021419;28;20618;-66
2023/05/28 08:50:52;;;;;;;2.43;2.33;;;41.30;39.50;;;41.26;nan;100827.31;5019666;28;20738;-65
2023/05/28 08:53:22;;;;;;;2.37;2.30;;;41.30;39.30;;;41.36;nan;100829.03;5020778;28;21163;-66
2023/05/28 08:55:49;;;;;;;3.23;2.80;;;41.60;39.40;;;41.13;nan;100832.78;5021581;28;20644;-68
2023/05/28 08:58:20;;;;;;;3.07;2.87;;;41.30;39.40;;;41.68;nan;100828.78;5025307;28;20617;-67
2023/05/28 09:00:48;;;;;;;2.90;2.80;;;41.70;39.30;;;41.16;nan;100822.06;5013936;28;20668;-66
2023/05/28 09:03:15;;;;;;;2.77;2.67;;;41.50;39.10;;;41.49;nan;100825.41;5035374;28;20647;-65
2023/05/28 09:05:42;;;;;;;3.23;3.00;;;41.60;39.20;;;42.00;nan;100824.97;5043616;28;20685;-67
2023/05/28 09:08:10;;;;;;;3.03;2.83;;;42.10;39.10;;;42.13;nan;100818.59;5037786;28;20742;-67
2023/05/28 09:10:38;;;;;;;3.17;3.07;;;42.40;38.80;;;42.20;nan;100808.81;5027104;28;20671;-64
2023/05/28 09:13:06;;;;;;;2.43;2.33;;;42.40;38.30;;;42.59;nan;100807.19;5034001;28;20620;-66
2023/05/28 09:15:35;;;;;;;2.73;2.63;;;42.70;38.50;;;43.29;nan;100809.75;5017778;28;20616;-66
2023/05/28 09:18:05;;;;;;;2.93;2.73;;;43.20;38.40;;;43.36;nan;100807.31;5009840;28;20651;-68
2023/05/28 09:20:33;;;;;;;2.50;2.40;;;43.40;37.90;;;43.58;nan;100804.38;5020844;28;20703;-67
2023/05/28 09:23:04;;;;;;;2.70;2.50;;;43.70;38.10;;;43.34;nan;100802.13;5025287;28;21221;-66
2023/05/28 09:25:36;;;;;;;3.20;3.10;;;43.70;37.50;;;43.14;nan;100800.03;5022533;28;20724;-65
2023/05/28 09:28:04;;;;;;;2.90;2.70;;;43.50;37.60;;;43.27;nan;100801.84;5013551;28;20612;-66
2023/05/28 09:30:37;;;;;;;3.03;2.87;;;43.50;37.50;;;43.24;nan;100788.72;5027051;28;21313;-68
2023/05/28 09:33:07;;;;;;;3.03;2.93;;;43.50;37.50;;;42.71;nan;100782.66;5024522;28;21097;-66
2023/05/28 09:35:35;;;;;;;2.83;2.63;;;43.10;37.30;;;42.33;nan;100788.69;5029820;28;20698;-68
2023/05/28 09:38:12;;;;;;;3.80;3.50;;;42.80;37.70;;;42.59;nan;100788.81;5013915;28;20640;-69
2023/05/28 09:40:41;;;;;;;2.87;2.67;;;42.70;38.10;;;42.53;nan;100781.84;5010558;28;21220;-70
2023/05/28 09:43:10;;;;;;;2.70;2.60;;;42.80;37.80;;;42.67;nan;100789.94;5012339;28;20613;-66
2023/05/28 09:45:37;;;;;;;2.77;2.67;;;42.80;37.30;;;42.33;nan;100785.13;5017794;28;20629;-66
2023/05/28 09:48:04;;;;;;;2.60;2.50;;;42.60;36.80;;;42.75;nan;100783.66;5016771;28;20991;-66
2023/05/28 09:50:31;;;;;;;2.80;2.70;;;42.80;37.10;;;42.51;nan;100783.28;5015310;28;20664;-70
2023/05/28 09:52:59;;;;;;;3.33;3.10;;;42.70;37.20;;;42.17;nan;100779.28;5019996;28;21286;-66
2023/05/28 09:55:30;;;;;;;2.87;2.77;;;42.40;37.40;;;41.17;nan;100781.81;5016933;28;20612;-67
2023/05/28 09:58:05;;;;;;;2.90;2.80;;;41.70;37.90;;;40.64;nan;100773.38;5028005;28;20617;-67
2023/05/28 10:00:38;;;;;;;3.00;2.50;;;40.80;38.40;;;39.93;nan;100777.47;5029046;28;20671;-68
2023/05/28 10:03:44;;;;;;;3.03;2.83;;;40.10;38.90;;;38.26;nan;100764.63;5028579;28;20625;-66
2023/05/28 10:06:21;;;;;;;4.20;2.93;;;38.90;39.10;;;36.95;nan;100749.34;5007596;28;20638;-65
2023/05/28 10:08:51;;;;;;;2.80;2.60;;;37.00;40.60;;;36.75;nan;100754.06;5017521;28;20629;-66
2023/05/28 10:11:26;;;;;;;3.47;3.13;;;36.10;41.40;;;36.09;nan;100754.28;5018637;28;20641;-65
2023/05/28 10:13:54;;;;;;;2.40;2.20;;;35.50;42.40;;;35.20;nan;100762.13;5012471;28;20667;-67
2023/05/28 10:16:22;;;;;;;3.30;3.00;;;34.70;42.50;;;34.34;nan;100753.66;5013378;28;20633;-65
2023/05/28 10:18:49;;;;;;;4.80;3.00;;;33.80;42.70;;;33.43;nan;100748.63;5027003;28;21204;-65
2023/05/28 10:21:19;;;;;;;4.13;2.50;;;32.90;43.60;;;32.54;nan;100742.00;5016397;28;20688;-68
2023/05/28 10:23:46;;;;;;;5.83;2.70;;;32.10;44.50;;;31.81;nan;100745.78;5021158;28;20642;-65
2023/05/28 10:26:15;;;;;;;1.47;1.40;;;31.40;44.90;;;31.24;nan;100757.72;5017049;28;20665;-67
2023/05/28 10:28:43;;;;;;;4.60;3.40;;;30.70;45.70;;;30.84;nan;100740.78;5026712;28;21004;-67